< < Back
Terminal Aerodrome Forecast


Current Version              Previous Versions:   1  2  3  4  5  6  7  8  9  

Terminal Aerodrome Forecast

193
FTUS42 KTAE 241700
TAFVLD
TAF
KVLD 241720Z 2418/2518 03005KT P6SM FEW200=

Latest METAR

384
SAUS70 KWBC 251600 RRH
MTRVLD
METAR KVLD 251553Z VRB04KT 10SM CLR 23/07 A3005 RMK AO2 SLP182
T02280072


USA.gov is the U.S. government's official web portal to all federal, state and local government web resources and services.